Back to Top

Language: 

My Weather Underground Personal Weather Station Historical Data with Graphs...

Delerius Weather Station Historical Data
Daily Summary for December 2, 2017 Units:  English    Metric   Both
« Previous Day
Next Day »
Daily Weekly Monthly Yearly Custom
  High: Low: Average:
Temperature: 46.9 °F 38.1 °F 44.5 °F
Dew Point: 43.6 °F 31.5 °F 41.1 °F
Humidity: 92 % 77 % 88 %
Wind Speed: 9.0 mph 0.0 mph 5.3 mph
Wind Gust: 15.0 mph - -
Wind:- - WNW
Pressure: 30.32 in 30.25 in -
Precipitation: 0.00 in    
Historical Graphs
 
 
Tabular Data for December 2, 2017
Time Temperature Dew Point Pressure Wind Wind Speed Wind Gust Humidity Rainfall Rate (Hourly) solar Conditions
00:05 38.3 °F 32.0 °F 30.32 in WNW 4.0 mph 5.0 mph 78 % 0.00 in 0 W/m2
00:10 38.3 °F 32.0 °F 30.32 in WNW 4.0 mph 6.0 mph 78 % 0.00 in 0 W/m2
00:15 38.3 °F 31.7 °F 30.32 in WNW 3.0 mph 5.0 mph 77 % 0.00 in 0 W/m2
00:20 38.1 °F 31.5 °F 30.32 in WNW 3.0 mph 6.0 mph 77 % 0.00 in 0 W/m2
00:25 38.1 °F 31.5 °F 30.32 in WNW 2.0 mph 5.0 mph 77 % 0.00 in 0 W/m2
00:30 38.3 °F 31.7 °F 30.32 in WNW 3.0 mph 6.0 mph 77 % 0.00 in 0 W/m2
00:35 38.1 °F 31.5 °F 30.32 in WNW 1.0 mph 4.0 mph 77 % 0.00 in 0 W/m2
00:40 38.3 °F 31.7 °F 30.32 in WNW 3.0 mph 5.0 mph 77 % 0.00 in 0 W/m2
00:45 38.3 °F 32.0 °F 30.32 in WNW 1.0 mph 4.0 mph 78 % 0.00 in 0 W/m2
00:50 38.1 °F 31.9 °F 30.32 in Calm   2.0 mph 78 % 0.00 in 0 W/m2
00:55 38.1 °F 31.9 °F 30.32 in Calm   1.0 mph 78 % 0.00 in 0 W/m2
01:05 38.1 °F 31.9 °F 30.32 in WNW 1.0 mph 2.0 mph 78 % 0.00 in 0 W/m2
01:10 38.3 °F 32.0 °F 30.32 in Calm   1.0 mph 78 % 0.00 in 0 W/m2
01:20 38.3 °F 32.0 °F 30.32 in Calm   3.0 mph 78 % 0.00 in 0 W/m2
11:30 46.2 °F 42.9 °F 30.28 in NW 6.0 mph 7.0 mph 88 % 0.00 in 109 W/m2
11:31 46.2 °F 42.9 °F 30.28 in WNW 7.0 mph 9.0 mph 88 % 0.00 in 109 W/m2
11:32 46.2 °F 42.9 °F 30.28 in WNW 7.0 mph 9.0 mph 88 % 0.00 in 113 W/m2
11:37 46.2 °F 42.9 °F 30.28 in WNW 7.0 mph 11.0 mph 88 % 0.00 in 132 W/m2
11:42 46.2 °F 42.9 °F 30.28 in WNW 6.0 mph 9.0 mph 88 % 0.00 in 134 W/m2
11:52 46.4 °F 43.0 °F 30.28 in WNW 7.0 mph 10.0 mph 88 % 0.00 in 149 W/m2
11:57 46.6 °F 43.2 °F 30.28 in WNW 8.0 mph 12.0 mph 88 % 0.00 in 135 W/m2
12:07 46.6 °F 43.2 °F 30.27 in WNW 9.0 mph 13.0 mph 88 % 0.00 in 116 W/m2
12:17 46.6 °F 42.9 °F 30.27 in WNW 8.0 mph 12.0 mph 87 % 0.00 in 128 W/m2
12:22 46.6 °F 42.9 °F 30.27 in NW 7.0 mph 11.0 mph 87 % 0.00 in 158 W/m2
12:27 46.6 °F 43.2 °F 30.27 in WNW 8.0 mph 11.0 mph 88 % 0.00 in 165 W/m2
12:37 46.9 °F 43.6 °F 30.27 in WNW 8.0 mph 12.0 mph 88 % 0.00 in 116 W/m2
12:42 46.9 °F 43.3 °F 30.26 in WNW 8.0 mph 12.0 mph 87 % 0.00 in 90 W/m2
12:47 46.9 °F 43.3 °F 30.26 in NW 7.0 mph 10.0 mph 87 % 0.00 in 97 W/m2
12:52 46.9 °F 43.3 °F 30.26 in WNW 7.0 mph 10.0 mph 87 % 0.00 in 93 W/m2
12:57 46.9 °F 43.3 °F 30.26 in WNW 6.0 mph 10.0 mph 87 % 0.00 in 79 W/m2
13:02 46.9 °F 43.3 °F 30.27 in WNW 8.0 mph 11.0 mph 87 % 0.00 in 86 W/m2
13:07 46.9 °F 43.3 °F 30.26 in WNW 7.0 mph 10.0 mph 87 % 0.00 in 88 W/m2
13:12 46.9 °F 43.3 °F 30.26 in WNW 6.0 mph 11.0 mph 87 % 0.00 in 90 W/m2
13:17 46.9 °F 43.3 °F 30.26 in WNW 8.0 mph 11.0 mph 87 % 0.00 in 70 W/m2
13:22 46.9 °F 43.3 °F 30.26 in NW 5.0 mph 7.0 mph 87 % 0.00 in 58 W/m2
13:27 46.9 °F 43.3 °F 30.26 in WNW 7.0 mph 9.0 mph 87 % 0.00 in 56 W/m2
13:32 46.9 °F 43.3 °F 30.26 in WNW 6.0 mph 9.0 mph 87 % 0.00 in 69 W/m2
13:37 46.9 °F 43.3 °F 30.26 in WNW 7.0 mph 9.0 mph 87 % 0.00 in 74 W/m2
13:42 46.9 °F 43.6 °F 30.26 in WNW 5.0 mph 7.0 mph 88 % 0.00 in 72 W/m2
13:47 46.8 °F 43.4 °F 30.26 in WNW 8.0 mph 11.0 mph 88 % 0.00 in 72 W/m2
13:52 46.8 °F 43.4 °F 30.26 in WNW 6.0 mph 8.0 mph 88 % 0.00 in 81 W/m2
13:57 46.8 °F 43.4 °F 30.26 in WNW 6.0 mph 7.0 mph 88 % 0.00 in 77 W/m2
14:02 46.9 °F 43.6 °F 30.26 in WNW 5.0 mph 8.0 mph 88 % 0.00 in 74 W/m2
14:08 46.8 °F 43.4 °F 30.26 in WNW 8.0 mph 11.0 mph 88 % 0.00 in 65 W/m2
14:13 46.8 °F 43.4 °F 30.26 in WNW 8.0 mph 12.0 mph 88 % 0.00 in 76 W/m2
14:18 46.8 °F 43.4 °F 30.26 in WNW 8.0 mph 11.0 mph 88 % 0.00 in 81 W/m2
14:23 46.8 °F 43.4 °F 30.26 in WNW 8.0 mph 13.0 mph 88 % 0.00 in 74 W/m2
14:28 46.8 °F 43.1 °F 30.26 in WNW 8.0 mph 12.0 mph 87 % 0.00 in 67 W/m2
14:33 46.6 °F 42.9 °F 30.26 in WNW 7.0 mph 10.0 mph 87 % 0.00 in 58 W/m2
14:38 46.6 °F 43.2 °F 30.26 in WNW 6.0 mph 11.0 mph 88 % 0.00 in 63 W/m2
14:43 46.6 °F 42.9 °F 30.26 in WNW 8.0 mph 11.0 mph 87 % 0.00 in 37 W/m2
14:53 46.6 °F 42.9 °F 30.26 in WNW 6.0 mph 9.0 mph 87 % 0.00 in 28 W/m2
14:58 46.4 °F 42.7 °F 30.26 in WNW 6.0 mph 8.0 mph 87 % 0.00 in 32 W/m2
15:08 46.2 °F 42.9 °F 30.26 in WNW 5.0 mph 7.0 mph 88 % 0.00 in 33 W/m2
15:13 46.2 °F 42.9 °F 30.26 in WNW 6.0 mph 9.0 mph 88 % 0.00 in 28 W/m2
15:18 46.2 °F 42.9 °F 30.26 in WNW 6.0 mph 8.0 mph 88 % 0.00 in 19 W/m2
15:23 46.0 °F 42.7 °F 30.26 in WNW 5.0 mph 8.0 mph 88 % 0.00 in 21 W/m2
15:33 46.0 °F 42.7 °F 30.26 in WNW 3.0 mph 5.0 mph 88 % 0.00 in 14 W/m2
15:38 45.9 °F 42.5 °F 30.26 in WNW 4.0 mph 6.0 mph 88 % 0.00 in 11 W/m2
15:43 45.7 °F 42.3 °F 30.26 in WNW 5.0 mph 7.0 mph 88 % 0.00 in 9 W/m2
15:48 45.3 °F 42.0 °F 30.26 in WNW 4.0 mph 6.0 mph 88 % 0.00 in 11 W/m2
15:53 45.1 °F 41.8 °F 30.26 in WNW 3.0 mph 6.0 mph 88 % 0.00 in 9 W/m2
15:58 45.0 °F 41.6 °F 30.25 in WNW 3.0 mph 5.0 mph 88 % 0.00 in 0 W/m2
16:03 44.8 °F 41.4 °F 30.25 in WNW 2.0 mph 5.0 mph 88 % 0.00 in 0 W/m2
16:13 44.2 °F 40.9 °F 30.26 in WNW 4.0 mph 6.0 mph 88 % 0.00 in 0 W/m2
16:18 44.1 °F 41.0 °F 30.26 in WNW 4.0 mph 6.0 mph 89 % 0.00 in 0 W/m2
16:28 43.5 °F 40.5 °F 30.26 in WNW 4.0 mph 6.0 mph 89 % 0.00 in 0 W/m2
16:33 43.3 °F 40.3 °F 30.25 in WNW 3.0 mph 6.0 mph 89 % 0.00 in 0 W/m2
16:38 43.2 °F 40.1 °F 30.25 in WNW 4.0 mph 5.0 mph 89 % 0.00 in 0 W/m2
16:43 43.0 °F 40.0 °F 30.25 in WNW 5.0 mph 7.0 mph 89 % 0.00 in 0 W/m2
16:48 42.6 °F 39.6 °F 30.26 in WNW 5.0 mph 7.0 mph 89 % 0.00 in 0 W/m2
16:53 42.6 °F 39.6 °F 30.26 in WNW 5.0 mph 7.0 mph 89 % 0.00 in 0 W/m2
16:58 42.6 °F 39.9 °F 30.26 in WNW 4.0 mph 7.0 mph 90 % 0.00 in 0 W/m2
17:12 42.6 °F 39.9 °F 30.25 in WNW 4.0 mph 6.0 mph 90 % 0.00 in 0 W/m2
17:17 42.6 °F 39.9 °F 30.26 in WNW 4.0 mph 6.0 mph 90 % 0.00 in 0 W/m2
17:22 42.8 °F 40.1 °F 30.25 in West 2.0 mph 4.0 mph 90 % 0.00 in 0 W/m2
17:27 43.0 °F 40.2 °F 30.25 in West 3.0 mph 5.0 mph 90 % 0.00 in 0 W/m2
17:42 43.5 °F 41.1 °F 30.26 in WNW 6.0 mph 8.0 mph 91 % 0.00 in 0 W/m2
17:47 43.7 °F 41.0 °F 30.26 in WNW 5.0 mph 7.0 mph 90 % 0.00 in 0 W/m2
17:57 43.9 °F 41.1 °F 30.26 in NW 4.0 mph 9.0 mph 90 % 0.00 in 0 W/m2
18:02 44.1 °F 41.3 °F 30.26 in NW 3.0 mph 5.0 mph 90 % 0.00 in 0 W/m2
18:07 44.1 °F 41.3 °F 30.26 in WNW 5.0 mph 7.0 mph 90 % 0.00 in 0 W/m2
18:17 44.2 °F 41.5 °F 30.26 in NW 5.0 mph 11.0 mph 90 % 0.00 in 0 W/m2
18:23 44.4 °F 41.7 °F 30.26 in WNW 6.0 mph 9.0 mph 90 % 0.00 in 0 W/m2
18:33 44.6 °F 41.8 °F 30.26 in WNW 5.0 mph 8.0 mph 90 % 0.00 in 0 W/m2
18:38 44.6 °F 41.8 °F 30.26 in WNW 5.0 mph 7.0 mph 90 % 0.00 in 0 W/m2
18:43 44.8 °F 42.0 °F 30.26 in West 5.0 mph 7.0 mph 90 % 0.00 in 0 W/m2
18:48 44.8 °F 42.0 °F 30.26 in West 5.0 mph 9.0 mph 90 % 0.00 in 0 W/m2
18:53 44.8 °F 42.0 °F 30.26 in WNW 7.0 mph 9.0 mph 90 % 0.00 in 0 W/m2
18:58 44.8 °F 42.0 °F 30.26 in WNW 5.0 mph 8.0 mph 90 % 0.00 in 0 W/m2
19:08 44.8 °F 42.0 °F 30.26 in WNW 6.0 mph 10.0 mph 90 % 0.00 in 0 W/m2
19:13 45.0 °F 42.2 °F 30.26 in WNW 6.0 mph 9.0 mph 90 % 0.00 in 0 W/m2
19:23 44.8 °F 42.0 °F 30.26 in WNW 6.0 mph 10.0 mph 90 % 0.00 in 0 W/m2
19:28 44.8 °F 42.0 °F 30.26 in WNW 5.0 mph 8.0 mph 90 % 0.00 in 0 W/m2
19:33 44.8 °F 42.0 °F 30.26 in WNW 6.0 mph 8.0 mph 90 % 0.00 in 0 W/m2
19:38 44.6 °F 41.8 °F 30.26 in WNW 4.0 mph 7.0 mph 90 % 0.00 in 0 W/m2
19:43 44.4 °F 41.7 °F 30.26 in WNW 4.0 mph 6.0 mph 90 % 0.00 in 0 W/m2
19:48 44.2 °F 41.5 °F 30.26 in WNW 4.0 mph 6.0 mph 90 % 0.00 in 0 W/m2
19:53 44.2 °F 41.5 °F 30.26 in WNW 4.0 mph 6.0 mph 90 % 0.00 in 0 W/m2
19:58 44.1 °F 41.3 °F 30.25 in WNW 4.0 mph 5.0 mph 90 % 0.00 in 0 W/m2
20:03 44.1 °F 41.3 °F 30.25 in WNW 3.0 mph 5.0 mph 90 % 0.00 in 0 W/m2
20:18 43.7 °F 41.2 °F 30.25 in WNW 3.0 mph 5.0 mph 91 % 0.00 in 0 W/m2
20:28 43.5 °F 41.1 °F 30.25 in WNW 3.0 mph 5.0 mph 91 % 0.00 in 0 W/m2
20:33 43.5 °F 41.1 °F 30.25 in WNW 3.0 mph 5.0 mph 91 % 0.00 in 0 W/m2
20:43 43.3 °F 40.9 °F 30.25 in WNW 4.0 mph 7.0 mph 91 % 0.00 in 0 W/m2
20:48 43.5 °F 41.4 °F 30.25 in WNW 3.0 mph 6.0 mph 92 % 0.00 in 0 W/m2
20:58 43.7 °F 41.5 °F 30.25 in WNW 4.0 mph 6.0 mph 92 % 0.00 in 0 W/m2
21:03 43.7 °F 41.5 °F 30.25 in WNW 4.0 mph 6.0 mph 92 % 0.00 in 0 W/m2
21:08 43.7 °F 41.5 °F 30.25 in WNW 3.0 mph 5.0 mph 92 % 0.00 in 0 W/m2
21:18 43.7 °F 41.5 °F 30.25 in WNW 6.0 mph 8.0 mph 92 % 0.00 in 0 W/m2
21:23 43.9 °F 41.7 °F 30.25 in WNW 6.0 mph 9.0 mph 92 % 0.00 in 0 W/m2
21:28 43.9 °F 41.7 °F 30.25 in WNW 5.0 mph 8.0 mph 92 % 0.00 in 0 W/m2
21:48 44.2 °F 41.8 °F 30.25 in WNW 6.0 mph 10.0 mph 91 % 0.00 in 0 W/m2
21:53 44.2 °F 41.8 °F 30.25 in WNW 6.0 mph 9.0 mph 91 % 0.00 in 0 W/m2
22:03 44.6 °F 42.1 °F 30.25 in WNW 8.0 mph 15.0 mph 91 % 0.00 in 0 W/m2
22:08 44.8 °F 42.3 °F 30.25 in WNW 8.0 mph 12.0 mph 91 % 0.00 in 0 W/m2
22:15 44.8 °F 42.3 °F 30.25 in WNW 7.0 mph 12.0 mph 91 % 0.00 in 0 W/m2
22:30 45.1 °F 42.7 °F 30.25 in WNW 8.0 mph 12.0 mph 91 % 0.00 in 0 W/m2
22:35 45.1 °F 42.7 °F 30.25 in WNW 7.0 mph 13.0 mph 91 % 0.00 in 0 W/m2
22:40 45.3 °F 42.8 °F 30.25 in WNW 8.0 mph 13.0 mph 91 % 0.00 in 0 W/m2
22:45 45.3 °F 42.8 °F 30.25 in WNW 8.0 mph 15.0 mph 91 % 0.00 in 0 W/m2
22:50 45.5 °F 43.0 °F 30.25 in WNW 8.0 mph 11.0 mph 91 % 0.00 in 0 W/m2
22:55 45.7 °F 42.9 °F 30.25 in WNW 6.0 mph 9.0 mph 90 % 0.00 in 0 W/m2
23:10 45.7 °F 42.9 °F 30.25 in WNW 8.0 mph 11.0 mph 90 % 0.00 in 0 W/m2
23:15 45.7 °F 42.9 °F 30.25 in WNW 8.0 mph 12.0 mph 90 % 0.00 in 0 W/m2
23:20 45.9 °F 43.1 °F 30.25 in WNW 7.0 mph 13.0 mph 90 % 0.00 in 0 W/m2
23:25 45.9 °F 43.1 °F 30.25 in NW 7.0 mph 12.0 mph 90 % 0.00 in 0 W/m2
23:30 45.9 °F 43.4 °F 30.25 in WNW 9.0 mph 12.0 mph 91 % 0.00 in 0 W/m2
23:35 45.9 °F 43.1 °F 30.25 in WNW 9.0 mph 12.0 mph 90 % 0.00 in 0 W/m2
23:45 45.9 °F 43.1 °F 30.25 in WNW 8.0 mph 11.0 mph 90 % 0.00 in 0 W/m2
23:50 45.9 °F 43.1 °F 30.25 in WNW 8.0 mph 11.0 mph 90 % 0.00 in 0 W/m2
23:55 45.9 °F 43.1 °F 30.25 in WNW 5.0 mph 8.0 mph 90 % 0.00 in 0 W/m2
Delerius-Weather
Compliments of Weather Underground - 1.5 mb

Data updates at regular intervals.